DW2613 Toddville MD US current weather conditions

sailwx.info

Wind from 049

Air temperature 10.6° C
Dewpoint 6.9° C

Last reported at 2020-Jan-24 22:00 UTC.
Time now 2020-Jan-24 23:15 UTC

Location: N 38°18' W 076°05'.
View on Google Maps.

See reports from other nearby stations

  
Tides and Currents Weather Stations Pressure Air Temp Water Temp Dewpoint Dewpoint Depression Visibility Wind Speed Wind Dir Waves Ship Positions
date/time (UTC)wind fromknots sea level pressurealtimeterstation pressurevisibilityair tempwater tempwave heightnotes
2020-Jan-24 22:00 049 10.6
2020-Jan-24 21:51 074 0 gusting 6 10.6
2020-Jan-24 21:41 071 11.1
2020-Jan-24 21:31 054 0 gusting 6 11.7
2020-Jan-24 21:20 034 2 gusting 6 11.7
2020-Jan-24 21:10 066 1 gusting 6 11.7
2020-Jan-24 21:00 067 1 gusting 6 11.7
2020-Jan-24 20:49 064 0 gusting 6 12.2
2020-Jan-24 20:40 046 1 gusting 7 12.8
2020-Jan-24 20:30 086 2 gusting 7 12.8
2020-Jan-24 20:20 066 2 gusting 6 12.8
2020-Jan-24 20:09 067 2 gusting 6 12.8
2020-Jan-24 19:59 059 2 gusting 6 12.8
2020-Jan-24 19:49 070 2 gusting 8 12.8
2020-Jan-24 19:40 063 4 gusting 10 13.3
2020-Jan-24 19:30 074 4 gusting 10 13.3
2020-Jan-24 19:20 067 3 gusting 9 13.3
2020-Jan-24 19:09 069 2 gusting 10 13.3
2020-Jan-24 19:00 051 3 gusting 10 12.8
2020-Jan-24 18:50 067 0 gusting 6 12.2
2020-Jan-24 18:40 070 3 gusting 10 12.2
2020-Jan-24 18:29 067 4 gusting 10 12.2
2020-Jan-24 18:19 014 2 gusting 8 12.2
2020-Jan-24 18:09 064 2 gusting 8 12.2
2020-Jan-24 17:59 062 3 gusting 7 12.2
2020-Jan-24 17:49 047 2 gusting 8 11.7
2020-Jan-24 17:39 063 3 gusting 8 11.1
2020-Jan-24 17:29 067 3 gusting 6 10.6
2020-Jan-24 17:19 035 4 gusting 11 10.6
2020-Jan-24 17:09 074 5 gusting 11 11.1
2020-Jan-24 16:59 056 5 gusting 10 11.1
2020-Jan-24 16:49 051 3 gusting 7 10.6
2020-Jan-24 16:39 064 4 gusting 8 10.6
2020-Jan-24 16:29 057 3 gusting 8 10.6
2020-Jan-24 16:18 069 4 gusting 10 10.0
2020-Jan-24 16:08 074 3 gusting 10 10.0
2020-Jan-24 15:58 055 2 gusting 7 9.4
2020-Jan-24 15:48 066 2 gusting 7 8.3
2020-Jan-24 15:38 034 1 gusting 7 7.8
2020-Jan-24 15:28 037 2 gusting 7 7.2
2020-Jan-24 15:19 069 0 gusting 6 6.7
2020-Jan-24 15:09 009 1 gusting 6 6.7
2020-Jan-24 14:59 023 0 gusting 7 6.1
2020-Jan-24 14:49 036 1 gusting 7 6.1
2020-Jan-24 14:39 051 0 gusting 5 5.6
2020-Jan-24 14:29 051 0 gusting 5 5.0
2020-Jan-24 14:18 046 5.0
2020-Jan-24 14:09 042 4.4
2020-Jan-24 13:58 047 4.4
2020-Jan-24 13:48 038 3.9
2020-Jan-24 13:38 039 3.9
2020-Jan-24 13:28 063 3.3
2020-Jan-24 13:18 045 3.3
2020-Jan-24 13:09 010 2.8
2020-Jan-24 12:58 020 2.8
2020-Jan-24 12:48 005 2.8
2020-Jan-24 12:37 024 2.2
2020-Jan-24 12:27 059 2.2
2020-Jan-24 12:17 034 1.7
2020-Jan-24 12:07 1.7
2020-Jan-24 11:57 009 1.7
2020-Jan-24 11:46 027 1.7
2020-Jan-24 11:37 044 1.1
2020-Jan-24 11:27 019 1.1
2020-Jan-24 11:17 014 1.1
2020-Jan-24 11:07 351 0.6
2020-Jan-24 10:57 038 0.6
2020-Jan-24 10:47 040 0.6
2020-Jan-24 10:37 059 0.6
2020-Jan-24 10:27 059 0.6
2020-Jan-24 10:17 020 0.6
2020-Jan-24 10:06 072 0.6
2020-Jan-24 09:56 022 1.1
2020-Jan-24 09:46 005 1.1
2020-Jan-24 09:36 355 1.1
2020-Jan-24 09:26 346 1.1
2020-Jan-24 09:16 346 1.1
2020-Jan-24 09:05 344 1.1
2020-Jan-24 08:55 355 1.1
2020-Jan-24 08:45 1.1
2020-Jan-24 08:34 344 1.1
2020-Jan-24 08:25 345 1.1
2020-Jan-24 08:15 1.1
2020-Jan-24 08:05 355 1.1
2020-Jan-24 07:54 011 1.1
2020-Jan-24 07:44 012 1.1
2020-Jan-24 07:33 355 1.1
2020-Jan-24 07:24 350 1.1
2020-Jan-24 07:13 345 1.1
2020-Jan-24 07:03 342 1.1
2020-Jan-24 06:52 342 1.1
2020-Jan-24 06:42 343 1.1
2020-Jan-24 06:32 005 1.1
2020-Jan-24 06:22 005 1.1
2020-Jan-24 06:11 034 1.1
2020-Jan-24 06:01 034 1.1
2020-Jan-24 05:51 032 1.1
2020-Jan-24 05:41 034 1.1
2020-Jan-24 05:31 034 1.1
2020-Jan-24 05:21 034 1.1
2020-Jan-24 05:11 034 1.7
2020-Jan-24 05:01 034 1.7
2020-Jan-24 04:51 034 1.7
2020-Jan-24 04:40 038 1.7
2020-Jan-24 04:30 036 1.7
2020-Jan-24 04:20 028 1.7
2020-Jan-24 04:10 028 1.7
2020-Jan-24 04:00 028 1.7
2020-Jan-24 03:51 028 1.7
2020-Jan-24 03:41 028 1.7
2020-Jan-24 03:31 028 1.7
2020-Jan-24 03:21 028 1.7
2020-Jan-24 03:11 028 1.7
2020-Jan-24 03:00 032 2.2
2020-Jan-24 02:50 032 2.2
2020-Jan-24 02:40 034 2.2
2020-Jan-24 02:29 034 2.2
2020-Jan-24 02:19 033 2.2
2020-Jan-24 02:09 033 2.2
2020-Jan-24 01:59 033 2.2
2020-Jan-24 01:49 033 2.2
2020-Jan-24 01:38 033 2.2
2020-Jan-24 01:28 033 1.7
2020-Jan-24 01:18 033 2.2
2020-Jan-24 01:08 033 2.2
2020-Jan-24 00:58 033 2.2
2020-Jan-24 00:49 033 2.2
2020-Jan-24 00:38 033 2.2
2020-Jan-24 00:28 033 2.2
2020-Jan-24 00:18 033 2.2
2020-Jan-24 00:07 033 2.8
2020-Jan-23 23:58 033 2.8
2020-Jan-23 23:48 033 2.8
2020-Jan-23 23:38 033 2.8
2020-Jan-23 23:28 033 3.3
2020-Jan-23 23:18 033 3.3
2020-Jan-23 23:08 033 3.3
2020-Jan-23 22:58 033 3.9
2020-Jan-23 22:48 033 3.9
2020-Jan-23 22:38 033 4.4
2020-Jan-23 22:27 033 5.0
2020-Jan-23 22:17 033 5.0
2020-Jan-23 22:07 033 5.6
2020-Jan-23 21:57 033 5.6
2020-Jan-23 21:47 033 6.1
2020-Jan-23 21:37 033 6.1
2020-Jan-23 21:27 033 6.7
2020-Jan-23 21:16 033 6.7
2020-Jan-23 21:07 033 6.7
2020-Jan-23 20:56 033 6.7
2020-Jan-23 20:46 034 6.7
2020-Jan-23 20:37 027 6.7
2020-Jan-23 20:27 061 6.7
2020-Jan-23 20:17 061 6.7
2020-Jan-23 20:07 343 6.7
2020-Jan-23 19:57 281 6.7
2020-Jan-23 19:47 317 6.7
2020-Jan-23 19:36 038 6.7
2020-Jan-23 19:26 072 6.1
2020-Jan-23 19:15 355 6.1
2020-Jan-23 19:05 348 6.1
2020-Jan-23 18:55 009 6.1
2020-Jan-23 18:45 315 6.1
2020-Jan-23 18:35 026 6.1
2020-Jan-23 18:25 355 6.1
2020-Jan-23 18:16 026 5.6
2020-Jan-23 18:05 015 5.6
2020-Jan-23 17:55 333 0 gusting 3 5.6
2020-Jan-23 17:45 047 0 gusting 0 5.6
2020-Jan-23 17:34 325 0 gusting 6 5.6
2020-Jan-23 17:24 339 5.6
2020-Jan-23 17:14 318 0 gusting 3 5.6
2020-Jan-23 17:04 355 1 gusting 4 5.0
2020-Jan-23 16:54 324 0 gusting 3 5.6
2020-Jan-23 16:44 336 1 gusting 5 5.0
2020-Jan-23 16:34 050 5.0
2020-Jan-23 16:24 038 1 gusting 6 4.4
2020-Jan-23 16:14 313 0 gusting 6 3.9
2020-Jan-23 16:04 040 0 gusting 2 3.3
2020-Jan-23 15:54 315 3.3
2020-Jan-23 15:44 349 2.8
2020-Jan-23 15:33 340 0 gusting 4 2.2
2020-Jan-23 15:24 288 0 gusting 2 2.2
2020-Jan-23 15:14 297 1.7
2020-Jan-23 15:03 342 1.7
2020-Jan-23 14:53 342 1.7
2020-Jan-23 14:44 030 1.7
2020-Jan-23 14:34 355 1.1
2020-Jan-23 14:24 355 0.6
2020-Jan-23 14:14 046 0.6
2020-Jan-23 14:04 344 -0.0
2020-Jan-23 13:54 321 -1.1
2020-Jan-23 13:44 321 -1.7
2020-Jan-23 13:34 321 -2.2
2020-Jan-23 13:23 321 -2.2
2020-Jan-23 13:14 321 -2.8
2020-Jan-23 13:03 321 -3.3
2020-Jan-23 12:53 321 -3.9
2020-Jan-23 12:42 321 -3.9
2020-Jan-23 12:32 321 -3.9
2020-Jan-23 12:22 321 -3.9
2020-Jan-23 12:12 321 -3.9
2020-Jan-23 12:02 321 -3.9
2020-Jan-23 11:52 321 -3.9
2020-Jan-23 11:42 321 -3.9
2020-Jan-23 11:32 321 -3.9
2020-Jan-23 11:22 321 -3.9
2020-Jan-23 11:12 321 -4.4
2020-Jan-23 11:01 321 -4.4
2020-Jan-23 10:51 321 -4.4
2020-Jan-23 10:41 321 -4.4
2020-Jan-23 10:32 321 -4.4
2020-Jan-23 10:21 321 -4.4
2020-Jan-23 10:12 321 -4.4
2020-Jan-23 10:01 321 -4.4
2020-Jan-23 09:51 321 -4.4
2020-Jan-23 09:40 321 -4.4
2020-Jan-23 09:30 321 -4.4
2020-Jan-23 09:20 321 -4.4
2020-Jan-23 09:10 321 -4.4
2020-Jan-23 09:00 321 -4.4
2020-Jan-23 08:50 321 -4.4
2020-Jan-23 08:40 321 -4.4
2020-Jan-23 08:30 321 -4.4
2020-Jan-23 08:20 321 -4.4
2020-Jan-23 08:10 321 -3.9
2020-Jan-23 07:59 321 -4.4
2020-Jan-23 07:50 321 -4.4
2020-Jan-23 07:39 321 -4.4
2020-Jan-23 07:29 321 -4.4
2020-Jan-23 07:19 321 -3.9
2020-Jan-23 07:09 321 -3.9
2020-Jan-23 06:59 321 -3.9
2020-Jan-23 06:49 321 -3.9
2020-Jan-23 06:38 321 -3.9
2020-Jan-23 06:28 321 -3.9
2020-Jan-23 06:19 321 -3.9
2020-Jan-23 06:09 321 -3.3
2020-Jan-23 05:59 321 -3.3
2020-Jan-23 05:48 321 -3.3
2020-Jan-23 05:39 321 -3.3
2020-Jan-23 05:28 321 -3.3
2020-Jan-23 05:18 321 -3.3
2020-Jan-23 05:08 321 -2.8
2020-Jan-23 04:58 321 -2.8
2020-Jan-23 04:48 321 -2.8
2020-Jan-23 04:38 321 -2.8
2020-Jan-23 04:28 321 -2.8
2020-Jan-23 04:17 321 -2.8
2020-Jan-23 04:07 321 -2.8
2020-Jan-23 03:57 321 -2.8
2020-Jan-23 03:47 321 -2.8
2020-Jan-23 03:37 321 -2.2
2020-Jan-23 03:27 319 -2.2
2020-Jan-23 03:17 319 -2.2
2020-Jan-23 03:07 319 -2.2
2020-Jan-23 02:57 295 -2.8
2020-Jan-23 02:46 293 -2.8
2020-Jan-23 02:37 293 -2.8
2020-Jan-23 02:27 293 -2.8
2020-Jan-23 02:17 293 -2.8
2020-Jan-23 02:06 293 -2.8
2020-Jan-23 01:56 293 -2.8
2020-Jan-23 01:46 293 -2.8
2020-Jan-23 01:36 293 -2.2
2020-Jan-23 01:26 293 -2.2
2020-Jan-23 01:15 293 -2.2
2020-Jan-23 01:05 293 -2.2
2020-Jan-23 00:55 293 -1.7
2020-Jan-23 00:44 293 -1.7
2020-Jan-23 00:34 293 -1.7
2020-Jan-23 00:24 293 -1.7
2020-Jan-23 00:14 293 -1.7
2020-Jan-23 00:04 293 -1.1
2020-Jan-22 23:54 293 -1.1
2020-Jan-22 23:44 293 -0.6
2020-Jan-22 23:34 293 -0.6
2020-Jan-22 23:24 293 -0.6
2020-Jan-22 23:14 333 -0.6
2020-Jan-22 23:04 333 -0.0